createdAt,value
2023-02-01T00:02:14.219Z,101650.25
2023-02-01T00:04:40.913Z,101651.22
2023-02-01T00:07:07.479Z,101644.03
2023-02-01T00:09:34.022Z,101642.31
2023-02-01T00:12:01.920Z,101641.47
2023-02-01T00:14:28.725Z,101647.75
2023-02-01T00:16:55.260Z,101649.59
2023-02-01T00:19:21.802Z,101643.25
2023-02-01T00:21:48.371Z,101644.22
2023-02-01T00:24:14.924Z,101640.56
2023-02-01T00:26:43.627Z,101640.50
2023-02-01T00:29:14.151Z,101640.56
2023-02-01T00:31:40.825Z,101644.22
2023-02-01T00:34:07.442Z,101644.22
2023-02-01T00:36:34.715Z,101640.69
2023-02-01T00:39:01.521Z,101639.91
2023-02-01T00:41:28.062Z,101644.34
2023-02-01T00:43:54.675Z,101639.91
2023-02-01T00:46:22.685Z,101647.94
2023-02-01T00:48:49.518Z,101643.47
2023-02-01T00:51:18.159Z,101649.59
2023-02-01T00:53:44.948Z,101650.53
2023-02-01T00:56:11.887Z,101654.09
2023-02-01T00:58:38.583Z,101657.72
2023-02-01T01:01:07.579Z,101662.13
2023-02-01T01:03:37.596Z,101656.88
2023-02-01T01:06:09.656Z,101651.50
2023-02-01T01:08:37.289Z,101653.31
2023-02-01T01:11:07.003Z,101655.91
2023-02-01T01:13:33.638Z,101648.06
2023-02-01T01:16:01.438Z,101644.53
2023-02-01T01:18:28.301Z,101644.34
2023-02-01T01:20:56.190Z,101642.50
2023-02-01T01:23:22.777Z,101639.06
2023-02-01T01:25:49.316Z,101637.16
2023-02-01T01:28:16.290Z,101636.19
2023-02-01T01:30:42.850Z,101634.53
2023-02-01T01:33:09.508Z,101642.59
2023-02-01T01:35:36.498Z,101638.97
2023-02-01T01:38:04.557Z,101637.22
2023-02-01T01:40:31.944Z,101635.50
2023-02-01T01:42:59.091Z,101642.59
2023-02-01T01:45:28.660Z,101648.06
2023-02-01T01:47:57.528Z,101645.50
2023-02-01T01:50:28.383Z,101651.69
2023-02-01T01:52:58.497Z,101657.06
2023-02-01T01:55:31.838Z,101664.25
2023-02-01T01:58:02.793Z,101665.19
2023-02-01T02:00:29.453Z,101672.47
2023-02-01T02:03:01.216Z,101679.91
2023-02-01T02:05:27.801Z,101686.63
2023-02-01T02:07:59.116Z,101687.69
2023-02-01T02:10:27.893Z,101681.66
2023-02-01T02:12:54.504Z,101672.66
2023-02-01T02:15:21.213Z,101677.16
2023-02-01T02:17:58.455Z,101673.63
2023-02-01T02:20:45.286Z,101665.78
2023-02-01T02:23:44.457Z,101663.94
2023-02-01T02:26:32.052Z,101664.69
2023-02-01T02:29:29.916Z,101662.97
2023-02-01T02:32:13.125Z,101657.63
2023-02-01T02:34:46.179Z,101666.63
2023-02-01T02:37:22.401Z,101665.78
2023-02-01T02:39:59.646Z,101674.75
2023-02-01T02:42:30.507Z,101671.97
2023-02-01T02:45:04.012Z,101663.16
2023-02-01T02:47:36.953Z,101658.66
2023-02-01T02:50:12.995Z,101658.66
2023-02-01T02:52:46.424Z,101659.53
2023-02-01T02:55:13.316Z,101657.72
2023-02-01T02:57:43.937Z,101655.81
2023-02-01T03:00:13.745Z,101663.09
2023-02-01T03:02:41.281Z,101659.63
2023-02-01T03:05:09.573Z,101672.16
2023-02-01T03:07:50.483Z,101660.59
2023-02-01T03:10:25.614Z,101649.03
2023-02-01T03:12:54.825Z,101652.56
2023-02-01T03:15:25.125Z,101645.75
2023-02-01T03:17:51.782Z,101645.06
2023-02-01T03:20:20.381Z,101652.16
2023-02-01T03:22:49.077Z,101661.91
2023-02-01T03:25:20.135Z,101654.69
2023-02-01T03:27:52.917Z,101665.91
2023-02-01T03:30:23.816Z,101656.69
2023-02-01T03:32:52.488Z,101661.47
2023-02-01T03:35:24.526Z,101654.22
2023-02-01T03:37:53.235Z,101653.97
2023-02-01T03:40:21.060Z,101646.19
2023-02-01T03:42:53.790Z,101658.56
2023-02-01T03:45:27.397Z,101648.34
2023-02-01T03:47:59.445Z,101655.34
2023-02-01T03:50:29.268Z,101659.75
2023-02-01T03:53:02.208Z,101661.06
2023-02-01T03:55:29.869Z,101645.06
2023-02-01T03:58:01.926Z,101634.00
2023-02-01T04:00:28.929Z,101632.19
2023-02-01T04:02:55.518Z,101634.78
2023-02-01T04:05:23.123Z,101632.75
2023-02-01T04:07:50.972Z,101638.66
2023-02-01T04:10:20.096Z,101641.47
2023-02-01T04:12:46.738Z,101656.38
2023-02-01T04:15:13.277Z,101654.47
2023-02-01T04:17:39.990Z,101663.91
2023-02-01T04:20:07.223Z,101663.25
2023-02-01T04:22:33.851Z,101656.50
2023-02-01T04:25:01.821Z,101653.19
2023-02-01T04:27:28.392Z,101645.88
2023-02-01T04:29:56.956Z,101645.69
2023-02-01T04:32:24.695Z,101655.56
2023-02-01T04:34:51.425Z,101657.16
2023-02-01T04:37:17.968Z,101659.47
2023-02-01T04:39:44.512Z,101652.28
2023-02-01T04:42:12.315Z,101646.16
2023-02-01T04:44:38.817Z,101657.31
2023-02-01T04:47:05.377Z,101655.59
2023-02-01T04:49:32.027Z,101649.16
2023-02-01T04:51:58.669Z,101634.22
2023-02-01T04:54:25.263Z,101629.94
2023-02-01T04:56:51.881Z,101649.69
2023-02-01T04:59:19.843Z,101651.84
2023-02-01T05:01:48.611Z,101644.44
2023-02-01T05:04:15.680Z,101644.31
2023-02-01T05:06:42.249Z,101648.84
2023-02-01T05:09:08.852Z,101654.56
2023-02-01T05:11:35.415Z,101665.31
2023-02-01T05:14:02.601Z,101662.72
2023-02-01T05:16:30.883Z,101658.41
2023-02-01T05:18:57.422Z,101659.59
2023-02-01T05:21:24.343Z,101664.13
2023-02-01T05:23:50.966Z,101654.56
2023-02-01T05:26:17.507Z,101652.41
2023-02-01T05:28:44.022Z,101660.69
2023-02-01T05:31:11.099Z,101667.34
2023-02-01T05:33:39.031Z,101672.19
2023-02-01T05:36:06.940Z,101675.97
2023-02-01T05:38:33.605Z,101667.25
2023-02-01T05:41:00.241Z,101670.03
2023-02-01T05:43:26.750Z,101665.84
2023-02-01T05:45:53.347Z,101661.63
2023-02-01T05:48:19.960Z,101666.59
2023-02-01T05:50:47.884Z,101679.16
2023-02-01T05:53:14.582Z,101685.84
2023-02-01T05:55:42.732Z,101683.56
2023-02-01T05:58:09.468Z,101685.94
2023-02-01T06:00:36.273Z,101678.09
2023-02-01T06:03:02.869Z,101679.09
2023-02-01T06:05:29.401Z,101671.09
2023-02-01T06:07:57.262Z,101660.16
2023-02-01T06:10:24.413Z,101657.13
2023-02-01T06:12:51.176Z,101655.19
2023-02-01T06:15:17.850Z,101662.28
2023-02-01T06:17:45.382Z,101662.28
2023-02-01T06:20:13.827Z,101658.66
2023-02-01T06:22:40.382Z,101663.25
2023-02-01T06:25:10.691Z,101663.16
2023-02-01T06:27:37.375Z,101664.03
2023-02-01T06:30:04.791Z,101651.78
2023-02-01T06:32:31.318Z,101653.91
2023-02-01T06:34:57.864Z,101656.81
2023-02-01T06:37:24.843Z,101662.72
2023-02-01T06:39:51.590Z,101669.19
2023-02-01T06:42:19.575Z,101677.13
2023-02-01T06:44:46.118Z,101668.22
2023-02-01T06:47:12.679Z,101696.06
2023-02-01T06:49:39.317Z,101689.59
2023-02-01T06:52:05.851Z,101702.72
2023-02-01T06:54:32.419Z,101714.78
2023-02-01T06:56:59.216Z,101717.53
2023-02-01T06:59:27.162Z,101714.22
2023-02-01T07:01:53.701Z,101710.03
2023-02-01T07:04:20.336Z,101717.88
2023-02-01T07:06:46.911Z,101719.72
2023-02-01T07:09:13.529Z,101719.72
2023-02-01T07:11:40.467Z,101710.66
2023-02-01T07:14:07.001Z,101693.56
2023-02-01T07:16:34.967Z,101696.25
2023-02-01T07:19:01.614Z,101696.81
2023-02-01T07:21:28.378Z,101702.50
2023-02-01T07:23:54.994Z,101696.91
2023-02-01T07:26:21.748Z,101700.09
2023-02-01T07:28:48.623Z,101695.50
2023-02-01T07:31:17.027Z,101695.66
2023-02-01T07:33:45.103Z,101693.13
2023-02-01T07:36:13.923Z,101681.66
2023-02-01T07:38:40.529Z,101677.28
2023-02-01T07:41:07.621Z,101676.22
2023-02-01T07:43:34.611Z,101687.50
2023-02-01T07:46:02.650Z,101681.84
2023-02-01T07:48:29.352Z,101686.13
2023-02-01T07:51:01.601Z,101700.31
2023-02-01T07:53:30.105Z,101711.16
2023-02-01T07:55:57.067Z,101703.13
2023-02-01T07:58:23.926Z,101692.00
2023-02-01T08:00:50.716Z,101700.59
2023-02-01T08:03:17.852Z,101704.41
2023-02-01T08:05:44.354Z,101708.25
2023-02-01T08:08:12.264Z,101702.94
2023-02-01T08:10:38.907Z,101715.31
2023-02-01T08:13:06.257Z,101719.69
2023-02-01T08:15:33.160Z,101717.59
2023-02-01T08:17:59.753Z,101721.72
2023-02-01T08:20:26.852Z,101712.94
2023-02-01T08:22:54.610Z,101723.69
2023-02-01T08:25:23.475Z,101723.06
2023-02-01T08:27:51.380Z,101722.66
2023-02-01T08:30:18.167Z,101731.44
2023-02-01T08:32:44.894Z,101722.13
2023-02-01T08:35:11.635Z,101716.03
2023-02-01T08:37:38.396Z,101724.47
2023-02-01T08:40:05.791Z,101729.19
2023-02-01T08:42:34.093Z,101722.66
2023-02-01T08:45:00.913Z,101729.94
2023-02-01T08:47:28.565Z,101727.81
2023-02-01T08:49:55.672Z,101729.34
2023-02-01T08:52:22.788Z,101735.34
2023-02-01T08:54:49.790Z,101740.44
2023-02-01T08:57:16.976Z,101738.66
2023-02-01T08:59:45.296Z,101749.19
2023-02-01T09:02:13.884Z,101755.56
2023-02-01T09:04:41.332Z,101758.66
2023-02-01T09:07:08.694Z,101757.56
2023-02-01T09:09:35.669Z,101745.25
2023-02-01T09:12:03.264Z,101750.72
2023-02-01T09:14:30.267Z,101745.38
2023-02-01T09:16:58.213Z,101748.31
2023-02-01T09:19:26.940Z,101762.41
2023-02-01T09:21:53.897Z,101755.22
2023-02-01T09:24:20.886Z,101759.78
2023-02-01T09:26:47.610Z,101763.75
2023-02-01T09:29:14.269Z,101768.47
2023-02-01T09:31:44.223Z,101771.41
2023-02-01T09:34:17.686Z,101772.13
2023-02-01T09:36:44.432Z,101758.97
2023-02-01T09:39:11.166Z,101763.94
2023-02-01T09:41:49.327Z,101754.03
2023-02-01T09:44:35.612Z,101756.50
2023-02-01T09:47:13.129Z,101756.31
2023-02-01T09:49:50.749Z,101753.03
2023-02-01T09:52:25.699Z,101751.09
2023-02-01T09:54:56.344Z,101755.31
2023-02-01T09:57:26.492Z,101745.28
2023-02-01T09:59:59.377Z,101749.25
2023-02-01T10:02:28.120Z,101747.41
2023-02-01T10:05:00.339Z,101743.13
2023-02-01T10:07:37.976Z,101735.22
2023-02-01T10:10:14.947Z,101739.41
2023-02-01T10:12:55.168Z,101738.19
2023-02-01T10:15:33.811Z,101738.16
2023-02-01T10:18:16.398Z,101737.50
2023-02-01T10:20:57.001Z,101753.03
2023-02-01T10:23:38.550Z,101759.00
2023-02-01T10:26:13.526Z,101767.56
2023-02-01T10:28:42.107Z,101779.72
2023-02-01T10:31:10.308Z,101782.72
2023-02-01T10:33:42.716Z,101793.56
2023-02-01T10:36:16.776Z,101796.34
2023-02-01T10:38:43.874Z,101798.63
2023-02-01T10:41:15.156Z,101803.47
2023-02-01T10:43:42.756Z,101815.59
2023-02-01T10:46:09.609Z,101814.09
2023-02-01T10:48:37.296Z,101802.00
2023-02-01T10:51:07.431Z,101800.38
2023-02-01T10:53:43.380Z,101794.56
2023-02-01T10:56:11.575Z,101798.06
2023-02-01T10:58:45.169Z,101804.91
2023-02-01T11:01:18.562Z,101778.41
2023-02-01T11:03:46.199Z,101782.38
2023-02-01T11:06:22.875Z,101770.88
2023-02-01T11:08:53.125Z,101770.28
2023-02-01T11:11:20.614Z,101764.47
2023-02-01T11:13:54.010Z,101764.59
2023-02-01T11:16:20.796Z,101755.75
2023-02-01T11:18:54.433Z,101763.59
2023-02-01T11:21:22.072Z,101770.94
2023-02-01T11:23:49.245Z,101785.69
2023-02-01T11:26:23.825Z,101778.31
2023-02-01T11:28:55.274Z,101779.31
2023-02-01T11:31:23.436Z,101788.88
2023-02-01T11:33:54.518Z,101791.59
2023-02-01T11:36:25.659Z,101794.38
2023-02-01T11:38:54.983Z,101799.13
2023-02-01T11:41:25.399Z,101796.75
2023-02-01T11:43:55.294Z,101797.25
2023-02-01T11:46:29.957Z,101786.47
2023-02-01T11:48:57.815Z,101782.63
2023-02-01T11:51:43.148Z,101787.91
2023-02-01T11:54:24.451Z,101786.19
2023-02-01T11:57:05.851Z,101787.44
2023-02-01T11:59:56.923Z,101790.50
2023-02-01T12:02:47.694Z,101784.94
2023-02-01T12:05:28.423Z,101780.25
2023-02-01T12:08:08.819Z,101780.31
2023-02-01T12:10:49.372Z,101779.22
2023-02-01T12:13:30.311Z,101773.47
2023-02-01T12:16:12.893Z,101770.25
2023-02-01T12:18:55.421Z,101774.69
2023-02-01T12:21:33.551Z,101763.56
2023-02-01T12:24:19.178Z,101772.88
2023-02-01T12:26:54.364Z,101756.28
2023-02-01T12:29:47.059Z,101762.84
2023-02-01T12:32:26.762Z,101765.84
2023-02-01T12:35:11.003Z,101760.63
2023-02-01T12:37:47.319Z,101751.94
2023-02-01T12:40:29.132Z,101754.00
2023-02-01T12:43:02.853Z,101755.13
2023-02-01T12:45:37.543Z,101751.25
2023-02-01T12:48:23.198Z,101740.66
2023-02-01T12:50:53.720Z,101749.28
2023-02-01T12:53:26.221Z,101747.59
2023-02-01T12:55:55.934Z,101747.00
2023-02-01T12:58:26.449Z,101746.69
2023-02-01T13:01:00.606Z,101742.97
2023-02-01T13:03:36.883Z,101742.56
2023-02-01T13:06:07.705Z,101736.50
2023-02-01T13:08:44.569Z,101739.50
2023-02-01T13:11:16.094Z,101733.78
2023-02-01T13:13:51.048Z,101733.00
2023-02-01T13:16:26.737Z,101731.91
2023-02-01T13:18:56.947Z,101728.75
2023-02-01T13:21:28.032Z,101723.06
2023-02-01T13:23:54.806Z,101727.69
2023-02-01T13:26:21.530Z,101725.34
2023-02-01T13:28:52.262Z,101715.00
2023-02-01T13:31:39.670Z,101708.56
2023-02-01T13:34:38.633Z,101719.44
2023-02-01T13:37:21.695Z,101713.28
2023-02-01T13:40:00.663Z,101715.78
2023-02-01T13:42:30.769Z,101724.63
2023-02-01T13:45:00.885Z,101712.69
2023-02-01T13:47:32.936Z,101707.50
2023-02-01T13:50:03.632Z,101716.22
2023-02-01T13:52:37.558Z,101710.59
2023-02-01T13:55:15.894Z,101704.56
2023-02-01T13:57:44.377Z,101701.88
2023-02-01T14:00:25.981Z,101711.41
2023-02-01T14:03:11.299Z,101699.34
2023-02-01T14:05:56.558Z,101696.13
2023-02-01T14:08:36.673Z,101696.72
2023-02-01T14:11:03.469Z,101700.28
2023-02-01T14:13:32.450Z,101702.97
2023-02-01T14:16:16.587Z,101706.22
2023-02-01T14:18:58.212Z,101710.66
2023-02-01T14:21:28.960Z,101709.47
2023-02-01T14:24:00.309Z,101699.59
2023-02-01T14:26:41.681Z,101707.34
2023-02-01T14:29:25.338Z,101711.34
2023-02-01T14:32:02.429Z,101709.81
2023-02-01T14:34:36.619Z,101705.97
2023-02-01T14:37:06.028Z,101699.81
2023-02-01T14:39:37.600Z,101699.75
2023-02-01T14:42:17.439Z,101712.13
2023-02-01T14:44:59.016Z,101712.78
2023-02-01T14:47:30.139Z,101714.00
2023-02-01T14:50:04.283Z,101707.97
2023-02-01T14:52:34.954Z,101698.50
2023-02-01T14:55:06.427Z,101704.56
2023-02-01T14:57:37.346Z,101717.63
2023-02-01T15:00:15.604Z,101703.25
2023-02-01T15:02:43.964Z,101710.75
2023-02-01T15:05:25.620Z,101717.34
2023-02-01T15:07:53.890Z,101719.97
2023-02-01T15:10:23.222Z,101722.88
2023-02-01T15:12:50.108Z,101728.47
2023-02-01T15:15:18.655Z,101724.47
2023-02-01T15:17:52.310Z,101712.78
2023-02-01T15:20:22.641Z,101723.06
2023-02-01T15:22:56.281Z,101727.50
2023-02-01T15:25:25.460Z,101716.97
2023-02-01T15:27:52.606Z,101726.09
2023-02-01T15:30:21.960Z,101724.97
2023-02-01T15:32:49.481Z,101717.66
2023-02-01T15:35:35.842Z,101722.94
2023-02-01T15:38:29.758Z,101734.31
2023-02-01T15:40:58.928Z,101727.66
2023-02-01T15:43:26.608Z,101727.34
2023-02-01T15:45:56.563Z,101726.81
2023-02-01T15:48:25.802Z,101723.69
2023-02-01T15:50:53.281Z,101722.81
2023-02-01T15:53:24.226Z,101731.97
2023-02-01T15:55:54.509Z,101720.13
2023-02-01T15:58:23.154Z,101725.06
2023-02-01T16:00:52.846Z,101729.06
2023-02-01T16:03:34.399Z,101731.00
2023-02-01T16:06:03.145Z,101728.53
2023-02-01T16:08:32.796Z,101720.34
2023-02-01T16:11:03.043Z,101725.53
2023-02-01T16:13:29.767Z,101717.78
2023-02-01T16:15:56.302Z,101719.28
2023-02-01T16:18:22.898Z,101720.13
2023-02-01T16:20:49.535Z,101726.59
2023-02-01T16:23:16.148Z,101723.78
2023-02-01T16:25:44.830Z,101727.81
2023-02-01T16:28:11.431Z,101731.56
2023-02-01T16:30:38.166Z,101732.19
2023-02-01T16:33:07.263Z,101728.75
2023-02-01T16:35:36.069Z,101726.19
2023-02-01T16:38:03.212Z,101723.06
2023-02-01T16:40:29.867Z,101731.44
2023-02-01T16:42:57.980Z,101734.47
2023-02-01T16:45:25.096Z,101733.28
2023-02-01T16:47:55.258Z,101734.13
2023-02-01T16:50:24.532Z,101733.06
2023-02-01T16:52:52.048Z,101746.72
2023-02-01T16:55:21.236Z,101755.19
2023-02-01T16:57:48.409Z,101753.69
2023-02-01T17:00:24.564Z,101754.56
2023-02-01T17:02:52.052Z,101752.06
2023-02-01T17:05:18.777Z,101755.81
2023-02-01T17:07:46.121Z,101759.59
2023-02-01T17:10:32.626Z,101751.97
2023-02-01T17:13:00.605Z,101755.19
2023-02-01T17:15:35.467Z,101759.69
2023-02-01T17:18:02.857Z,101763.56
2023-02-01T17:20:31.653Z,101766.91
2023-02-01T17:22:59.143Z,101773.78
2023-02-01T17:25:26.851Z,101764.53
2023-02-01T17:27:53.483Z,101775.72
2023-02-01T17:30:20.200Z,101767.97
2023-02-01T17:32:48.127Z,101771.00
2023-02-01T17:35:19.940Z,101770.75
2023-02-01T17:37:47.137Z,101773.00
2023-02-01T17:40:14.439Z,101769.75
2023-02-01T17:42:41.929Z,101776.97
2023-02-01T17:45:22.085Z,101771.81
2023-02-01T17:47:50.806Z,101766.06
2023-02-01T17:50:18.024Z,101778.63
2023-02-01T17:52:45.054Z,101776.81
2023-02-01T17:55:18.047Z,101783.81
2023-02-01T17:57:44.818Z,101781.75
2023-02-01T18:00:13.196Z,101785.31
2023-02-01T18:02:39.745Z,101774.63
2023-02-01T18:05:15.677Z,101780.22
2023-02-01T18:07:42.245Z,101775.94
2023-02-01T18:10:10.889Z,101784.53
2023-02-01T18:12:39.078Z,101785.88
2023-02-01T18:15:17.184Z,101785.13
2023-02-01T18:17:44.307Z,101776.28
2023-02-01T18:20:17.192Z,101778.97
2023-02-01T18:22:44.427Z,101777.34
2023-02-01T18:25:16.369Z,101776.63
2023-02-01T18:27:43.244Z,101776.69
2023-02-01T18:30:10.694Z,101778.53
2023-02-01T18:32:37.271Z,101776.69
2023-02-01T18:35:16.686Z,101774.22
2023-02-01T18:37:43.360Z,101771.72
2023-02-01T18:40:14.121Z,101772.63
2023-02-01T18:42:40.714Z,101771.53
2023-02-01T18:45:20.635Z,101780.00
2023-02-01T18:47:47.229Z,101778.56
2023-02-01T18:50:13.813Z,101778.69
2023-02-01T18:52:41.690Z,101781.38
2023-02-01T18:55:09.042Z,101779.44
2023-02-01T18:57:35.786Z,101779.81
2023-02-01T19:00:03.123Z,101778.31
2023-02-01T19:02:29.707Z,101779.28
2023-02-01T19:04:56.255Z,101782.94
2023-02-01T19:07:22.857Z,101782.16
2023-02-01T19:09:50.696Z,101780.44
2023-02-01T19:12:17.430Z,101787.91
2023-02-01T19:14:43.970Z,101791.44
2023-02-01T19:17:10.582Z,101790.78
2023-02-01T19:19:37.156Z,101794.44
2023-02-01T19:22:03.952Z,101798.09
2023-02-01T19:24:30.542Z,101803.16
2023-02-01T19:26:58.472Z,101800.78
2023-02-01T19:29:25.116Z,101800.97
2023-02-01T19:31:51.781Z,101801.28
2023-02-01T19:34:18.351Z,101802.00
2023-02-01T19:36:44.987Z,101801.16
2023-02-01T19:39:11.504Z,101797.63
2023-02-01T19:41:37.985Z,101795.97
2023-02-01T19:44:05.995Z,101801.34
2023-02-01T19:46:32.605Z,101798.97
2023-02-01T19:48:59.235Z,101810.56
2023-02-01T19:51:25.847Z,101804.44
2023-02-01T19:53:52.346Z,101808.00
2023-02-01T19:56:18.917Z,101810.75
2023-02-01T19:58:45.417Z,101812.69
2023-02-01T20:01:12.354Z,101815.44
2023-02-01T20:03:39.155Z,101819.09
2023-02-01T20:06:05.796Z,101818.25
2023-02-01T20:08:32.281Z,101817.28
2023-02-01T20:10:58.865Z,101815.81
2023-02-01T20:13:25.402Z,101821.19
2023-02-01T20:15:56.047Z,101825.69
2023-02-01T20:18:23.976Z,101825.88
2023-02-01T20:20:54.962Z,101825.88
2023-02-01T20:23:21.562Z,101817.94
2023-02-01T20:25:49.391Z,101819.66
2023-02-01T20:28:15.930Z,101818.06
2023-02-01T20:30:44.061Z,101810.69
2023-02-01T20:33:10.669Z,101815.06
2023-02-01T20:35:38.666Z,101814.47
2023-02-01T20:38:05.152Z,101815.38
2023-02-01T20:40:31.665Z,101815.38
2023-02-01T20:42:58.836Z,101823.41
2023-02-01T20:45:25.832Z,101813.44
2023-02-01T20:47:52.806Z,101819.97
2023-02-01T20:50:19.638Z,101822.63
2023-02-01T20:52:47.624Z,101818.25
2023-02-01T20:55:14.339Z,101821.94
2023-02-01T20:57:40.935Z,101817.44
2023-02-01T21:00:08.924Z,101831.81
2023-02-01T21:02:35.873Z,101834.38
2023-02-01T21:05:02.387Z,101829.00
2023-02-01T21:07:29.401Z,101829.19
2023-02-01T21:09:57.360Z,101830.28
2023-02-01T21:12:24.514Z,101824.91
2023-02-01T21:14:51.124Z,101825.66
2023-02-01T21:17:17.783Z,101817.53
2023-02-01T21:19:44.394Z,101822.97
2023-02-01T21:22:12.195Z,101815.03
2023-02-01T21:24:39.335Z,101813.41
2023-02-01T21:27:07.669Z,101811.75
2023-02-01T21:29:34.342Z,101810.84
2023-02-01T21:32:00.836Z,101816.28
2023-02-01T21:34:27.422Z,101809.09
2023-02-01T21:36:53.925Z,101810.06
2023-02-01T21:39:20.579Z,101808.34
2023-02-01T21:41:47.111Z,101816.44
2023-02-01T21:44:15.677Z,101811.75
2023-02-01T21:46:43.174Z,101811.00
2023-02-01T21:49:09.919Z,101809.19
2023-02-01T21:51:36.844Z,101806.69
2023-02-01T21:54:03.758Z,101796.75
2023-02-01T21:56:30.673Z,101793.41
2023-02-01T21:58:57.484Z,101791.56
2023-02-01T22:01:25.719Z,101792.44
2023-02-01T22:03:52.738Z,101789.63
2023-02-01T22:06:23.524Z,101790.59
2023-02-01T22:08:50.230Z,101788.03
2023-02-01T22:11:17.088Z,101784.69
2023-02-01T22:13:43.613Z,101784.56
2023-02-01T22:16:10.172Z,101785.34
2023-02-01T22:18:38.116Z,101792.63
2023-02-01T22:21:05.174Z,101794.50
2023-02-01T22:23:31.716Z,101798.75
2023-02-01T22:25:59.787Z,101804.19
2023-02-01T22:28:30.943Z,101814.84
2023-02-01T22:31:02.175Z,101810.06
2023-02-01T22:33:29.053Z,101804.19
2023-02-01T22:35:56.879Z,101809.38
2023-02-01T22:38:23.440Z,101799.63
2023-02-01T22:40:54.316Z,101805.06
2023-02-01T22:43:21.056Z,101809.56
2023-02-01T22:45:47.774Z,101804.19
2023-02-01T22:48:14.365Z,101809.66
2023-02-01T22:50:40.974Z,101812.16
2023-02-01T22:53:09.009Z,101805.91
2023-02-01T22:55:36.526Z,101807.91
2023-02-01T22:58:03.215Z,101808.88
2023-02-01T23:00:30.457Z,101809.00
2023-02-01T23:02:57.026Z,101812.53
2023-02-01T23:05:23.906Z,101798.34
2023-02-01T23:07:50.698Z,101794.81
2023-02-01T23:10:19.825Z,101788.47
2023-02-01T23:12:46.744Z,101776.63
2023-02-01T23:15:14.352Z,101785.22
2023-02-01T23:17:40.870Z,101785.13
2023-02-01T23:20:11.455Z,101783.53
2023-02-01T23:22:37.953Z,101791.63
2023-02-01T23:25:04.936Z,101808.59
2023-02-01T23:27:32.943Z,101800.66
2023-02-01T23:29:59.454Z,101802.34
2023-02-01T23:32:25.959Z,101801.50
2023-02-01T23:34:52.499Z,101799.78
2023-02-01T23:37:19.235Z,101806.19
2023-02-01T23:39:45.719Z,101799.00
2023-02-01T23:42:12.200Z,101801.78
2023-02-01T23:44:40.062Z,101789.13
2023-02-01T23:47:06.693Z,101785.22
2023-02-01T23:49:33.163Z,101789.13
2023-02-01T23:51:59.668Z,101783.97
2023-02-01T23:54:26.357Z,101784.06
2023-02-01T23:56:52.870Z,101793.16
2023-02-01T23:59:21.061Z,101789.44
